Terminal Aerodrome Forecast
Issued by NWS New Orleans/Baton Rouge, LA

Home | Current Version | Previous Version | Text Only | Print | Product List | Glossary On
Versions: 1 2 3 4 5 6 7 8 9 10 11 12 13 14 15 16
921
FTUS44 KLIX 300508 AAA
TAFBTR
TAF AMD
KBTR 300508Z 3005/3024 00000KT P6SM FEW120
     FM300700 VRB03KT P6SM VCSH BKN080 OVC120
     FM301400 13007KT P6SM SCT030 BKN090
     FM301900 13009KT P6SM VCTS BKN035CB BKN100=

USA.gov is the U.S. government's official web portal to all federal, state and local government web resources and services.